createdAt,value
2018-12-12T00:02:06.481Z,5.70
2018-12-12T00:04:41.269Z,6.23
2018-12-12T00:07:10.062Z,6.53
2018-12-12T00:09:44.105Z,6.53
2018-12-12T00:12:18.250Z,6.60
2018-12-12T00:14:52.603Z,6.87
2018-12-12T00:17:31.082Z,6.37
2018-12-12T00:20:06.181Z,6.80
2018-12-12T00:22:37.874Z,5.97
2018-12-12T00:25:11.878Z,6.73
2018-12-12T00:27:46.163Z,6.17
2018-12-12T00:30:20.703Z,7.17
2018-12-12T00:32:55.426Z,6.77
2018-12-12T00:35:29.801Z,6.47
2018-12-12T00:38:01.468Z,6.40
2018-12-12T00:40:33.704Z,6.57
2018-12-12T00:43:05.350Z,6.67
2018-12-12T00:45:39.862Z,6.23
2018-12-12T00:48:12.032Z,7.13
2018-12-12T00:50:44.436Z,6.47
2018-12-12T00:53:18.848Z,6.57
2018-12-12T00:55:53.405Z,7.00
2018-12-12T00:58:25.784Z,7.20
2018-12-12T01:00:57.686Z,6.57
2018-12-12T01:03:32.019Z,7.07
2018-12-12T01:06:06.206Z,6.37
2018-12-12T01:08:37.650Z,6.73
2018-12-12T01:11:15.234Z,6.63
2018-12-12T01:13:46.958Z,6.50
2018-12-12T01:16:18.954Z,6.37
2018-12-12T01:18:51.196Z,6.30
2018-12-12T01:21:23.401Z,6.50
2018-12-12T01:23:57.804Z,6.13
2018-12-12T01:26:29.832Z,6.43
2018-12-12T01:29:04.248Z,6.57
2018-12-12T01:31:38.358Z,6.63
2018-12-12T01:34:12.320Z,6.47
2018-12-12T01:36:48.188Z,7.50
2018-12-12T01:39:20.588Z,6.90
2018-12-12T01:41:54.976Z,6.90
2018-12-12T01:44:27.104Z,7.43
2018-12-12T01:47:01.650Z,8.13
2018-12-12T01:49:33.374Z,7.50
2018-12-12T01:52:05.858Z,6.60
2018-12-12T01:54:37.762Z,6.33
2018-12-12T01:57:09.884Z,5.83
2018-12-12T01:59:41.362Z,6.60
2018-12-12T02:02:12.871Z,5.53
2018-12-12T02:04:45.021Z,6.03
2018-12-12T02:07:17.507Z,5.63
2018-12-12T02:09:49.999Z,5.63
2018-12-12T02:12:22.006Z,5.70
2018-12-12T02:14:54.333Z,5.70
2018-12-12T02:17:26.677Z,5.20
2018-12-12T02:20:11.497Z,5.47
2018-12-12T02:22:46.232Z,5.57
2018-12-12T02:25:21.023Z,5.93
2018-12-12T02:27:53.631Z,6.50
2018-12-12T02:30:28.054Z,6.60
2018-12-12T02:32:59.830Z,6.37
2018-12-12T02:35:32.198Z,6.50
2018-12-12T02:38:04.402Z,6.10
2018-12-12T02:40:36.737Z,6.20
2018-12-12T02:43:09.031Z,6.70
2018-12-12T02:45:41.412Z,5.33
2018-12-12T02:48:15.482Z,5.03
2018-12-12T02:50:50.057Z,6.13
2018-12-12T02:53:21.963Z,6.57
2018-12-12T02:55:54.039Z,7.30
2018-12-12T02:58:27.912Z,7.50
2018-12-12T03:00:59.495Z,6.93
2018-12-12T03:03:35.062Z,6.80
2018-12-12T03:06:06.863Z,7.03
2018-12-12T03:08:36.528Z,6.90
2018-12-12T03:16:06.502Z,6.90
2018-12-12T03:23:39.151Z,6.03
2018-12-12T03:26:11.068Z,6.30
2018-12-12T03:28:43.451Z,6.03
2018-12-12T03:31:20.871Z,5.63
2018-12-12T03:33:54.322Z,5.03
2018-12-12T03:36:26.282Z,4.70
2018-12-12T03:39:00.816Z,5.13
2018-12-12T03:41:32.388Z,5.60
2018-12-12T03:44:05.448Z,5.37
2018-12-12T03:46:37.037Z,5.53
2018-12-12T03:49:09.322Z,5.40
2018-12-12T03:51:41.158Z,4.77
2018-12-12T03:54:13.425Z,4.53
2018-12-12T03:56:45.310Z,4.50
2018-12-12T03:59:17.580Z,4.70
2018-12-12T04:01:49.731Z,5.07
2018-12-12T04:04:22.338Z,5.20
2018-12-12T04:06:54.287Z,5.70
2018-12-12T04:09:26.579Z,6.00
2018-12-12T04:11:58.425Z,6.77
2018-12-12T04:14:30.593Z,6.37
2018-12-12T04:17:05.568Z,6.57
2018-12-12T04:19:37.127Z,6.87
2018-12-12T04:22:12.889Z,8.03
2018-12-12T04:27:16.766Z,8.27
2018-12-12T04:29:48.679Z,6.77
2018-12-12T04:32:20.684Z,7.30
2018-12-12T04:34:53.226Z,8.23
2018-12-12T04:37:23.852Z,7.23
2018-12-12T04:39:55.824Z,7.33
2018-12-12T04:42:27.320Z,7.20
2018-12-12T04:44:57.600Z,7.80
2018-12-12T04:47:30.096Z,7.10
2018-12-12T04:50:04.441Z,8.27
2018-12-12T04:52:38.455Z,7.40
2018-12-12T04:55:10.409Z,7.13
2018-12-12T04:57:42.388Z,7.77
2018-12-12T05:00:14.663Z,8.03
2018-12-12T05:02:47.223Z,8.03
2018-12-12T05:05:19.194Z,7.33
2018-12-12T05:07:49.339Z,8.17
2018-12-12T05:10:21.567Z,8.17
2018-12-12T05:12:53.896Z,7.00
2018-12-12T05:15:28.205Z,8.10
2018-12-12T05:18:02.295Z,8.60
2018-12-12T05:20:34.099Z,8.03
2018-12-12T05:23:06.286Z,8.27
2018-12-12T05:25:37.701Z,7.13
2018-12-12T05:28:10.086Z,7.57
2018-12-12T05:30:44.797Z,7.17
2018-12-12T05:33:16.468Z,8.67
2018-12-12T05:35:48.837Z,8.80
2018-12-12T05:38:23.782Z,8.40
2018-12-12T05:40:58.549Z,9.30
2018-12-12T05:43:30.169Z,8.43
2018-12-12T05:46:02.645Z,8.57
2018-12-12T05:48:35.079Z,7.90
2018-12-12T05:51:07.141Z,9.47
2018-12-12T05:53:40.642Z,9.23
2018-12-12T05:56:14.282Z,8.90
2018-12-12T05:58:46.389Z,8.60
2018-12-12T06:01:18.479Z,8.37
2018-12-12T06:03:50.709Z,8.20
2018-12-12T06:06:23.574Z,8.73
2018-12-12T06:08:57.609Z,7.93
2018-12-12T06:11:32.129Z,7.03
2018-12-12T06:14:04.640Z,6.97
2018-12-12T06:16:39.733Z,7.60
2018-12-12T06:19:12.379Z,6.67
2018-12-12T06:21:46.408Z,7.53
2018-12-12T06:24:15.161Z,7.07
2018-12-12T06:26:44.837Z,7.47
2018-12-12T06:29:19.470Z,8.67
2018-12-12T06:31:52.412Z,8.40
2018-12-12T06:34:24.445Z,8.43
2018-12-12T06:36:58.961Z,8.87
2018-12-12T06:42:18.605Z,8.10
2018-12-12T06:44:53.694Z,8.43
2018-12-12T06:47:26.451Z,8.97
2018-12-12T06:49:58.654Z,9.67
2018-12-12T06:52:31.156Z,10.13
2018-12-12T06:55:02.834Z,9.60
2018-12-12T06:57:37.833Z,8.67
2018-12-12T07:00:12.386Z,7.27
2018-12-12T07:02:47.082Z,7.77
2018-12-12T07:05:19.500Z,8.50
2018-12-12T07:07:53.612Z,8.43
2018-12-12T07:10:28.095Z,7.73
2018-12-12T07:13:02.022Z,8.77
2018-12-12T07:15:36.161Z,8.87
2018-12-12T07:18:10.304Z,9.27
2018-12-12T07:20:44.446Z,9.77
2018-12-12T07:23:14.528Z,8.93
2018-12-12T07:25:46.987Z,9.00
2018-12-12T07:28:18.850Z,8.63
2018-12-12T07:30:51.372Z,8.37
2018-12-12T07:33:25.830Z,8.63
2018-12-12T07:35:59.660Z,8.53
2018-12-12T07:38:30.162Z,9.07
2018-12-12T07:41:02.554Z,9.00
2018-12-12T07:43:37.011Z,8.90
2018-12-12T07:46:08.958Z,8.70
2018-12-12T07:48:41.207Z,9.40
2018-12-12T07:51:13.421Z,9.03
2018-12-12T07:53:45.435Z,9.07
2018-12-12T07:56:17.994Z,10.03
2018-12-12T07:58:50.100Z,9.57
2018-12-12T08:01:25.207Z,9.43
2018-12-12T08:03:57.453Z,9.97
2018-12-12T08:06:29.603Z,10.50
2018-12-12T08:09:02.035Z,10.37
2018-12-12T08:11:33.839Z,10.70
2018-12-12T08:14:05.777Z,9.70
2018-12-12T08:16:38.672Z,12.13
2018-12-12T08:19:19.395Z,12.30
2018-12-12T08:21:53.858Z,12.60
2018-12-12T08:24:31.722Z,11.43
2018-12-12T08:27:04.165Z,11.73
2018-12-12T08:29:38.477Z,10.57
2018-12-12T08:32:12.689Z,10.43
2018-12-12T08:34:46.586Z,10.37
2018-12-12T08:37:20.473Z,10.73
2018-12-12T08:39:54.783Z,10.73
2018-12-12T08:42:29.338Z,11.83
2018-12-12T08:45:03.581Z,10.57
2018-12-12T08:47:38.008Z,12.83
2018-12-12T08:50:10.117Z,12.93
2018-12-12T08:52:42.585Z,11.83
2018-12-12T08:55:17.709Z,11.00
2018-12-12T08:57:48.585Z,10.03
2018-12-12T09:00:21.141Z,11.70
2018-12-12T09:02:53.377Z,12.23
2018-12-12T09:05:25.855Z,18.13
2018-12-12T09:07:57.947Z,13.73
2018-12-12T09:10:33.050Z,13.10
2018-12-12T09:13:05.466Z,11.03
2018-12-12T09:15:40.156Z,10.73
2018-12-12T09:18:11.834Z,9.93
2018-12-12T09:20:43.914Z,11.47
2018-12-12T09:23:17.817Z,10.10
2018-12-12T09:25:51.973Z,10.73
2018-12-12T09:28:24.102Z,10.83
2018-12-12T09:30:56.182Z,9.90
2018-12-12T09:33:28.339Z,10.40
2018-12-12T09:36:03.114Z,10.13
2018-12-12T09:38:35.044Z,10.70
2018-12-12T09:41:09.269Z,10.37
2018-12-12T09:48:42.263Z,10.53
2018-12-12T09:51:14.778Z,11.70
2018-12-12T09:58:44.872Z,12.23
2018-12-12T10:08:48.110Z,12.93
2018-12-12T10:11:22.739Z,12.53
2018-12-12T10:13:56.770Z,12.07
2018-12-12T10:16:29.526Z,13.73
2018-12-12T10:19:01.161Z,11.60
2018-12-12T10:21:33.089Z,13.70
2018-12-12T10:24:05.623Z,13.87
2018-12-12T10:26:37.588Z,13.60
2018-12-12T10:29:10.046Z,13.77
2018-12-12T10:31:41.861Z,13.60
2018-12-12T10:34:13.927Z,13.93
2018-12-12T10:36:46.136Z,13.33
2018-12-12T10:39:18.569Z,14.30
2018-12-12T10:41:50.405Z,14.30
2018-12-12T10:44:21.950Z,14.43
2018-12-12T10:46:54.188Z,14.20
2018-12-12T10:49:28.089Z,13.70
2018-12-12T10:51:59.902Z,15.33
2018-12-12T10:54:34.574Z,14.87
2018-12-12T10:57:08.518Z,15.70
2018-12-12T10:59:42.614Z,15.40
2018-12-12T11:02:22.612Z,15.10
2018-12-12T11:04:56.915Z,14.43
2018-12-12T11:07:31.424Z,15.20
2018-12-12T11:10:04.709Z,14.80
2018-12-12T11:12:36.462Z,15.90
2018-12-12T11:17:43.962Z,16.13
2018-12-12T11:22:44.520Z,16.77
2018-12-12T11:25:16.830Z,15.10
2018-12-12T11:27:49.150Z,16.13
2018-12-12T11:30:21.425Z,15.77
2018-12-12T11:32:53.130Z,16.93
2018-12-12T11:35:26.992Z,16.47
2018-12-12T11:38:01.182Z,17.17
2018-12-12T11:40:32.958Z,15.73
2018-12-12T11:43:07.532Z,16.93
2018-12-12T11:45:39.474Z,17.23
2018-12-12T11:48:11.781Z,17.13
2018-12-12T11:50:43.806Z,17.60
2018-12-12T11:53:18.327Z,16.93
2018-12-12T11:55:52.644Z,18.00
2018-12-12T11:58:27.115Z,18.43
2018-12-12T12:00:59.027Z,15.97
2018-12-12T12:03:30.889Z,16.03
2018-12-12T12:06:05.589Z,17.77
2018-12-12T12:08:37.122Z,15.83
2018-12-12T12:11:12.019Z,16.27
2018-12-12T12:13:45.987Z,15.70
2018-12-12T12:16:17.616Z,16.47
2018-12-12T12:18:49.937Z,15.27
2018-12-12T12:21:22.176Z,16.87
2018-12-12T12:26:24.297Z,15.97
2018-12-12T12:28:58.868Z,15.67
2018-12-12T12:31:30.641Z,15.50
2018-12-12T12:36:36.399Z,16.00
2018-12-12T12:39:08.585Z,15.37
2018-12-12T12:41:40.290Z,15.13
2018-12-12T12:44:14.965Z,14.60
2018-12-12T12:46:48.970Z,14.90
2018-12-12T12:49:20.861Z,15.27
2018-12-12T12:51:52.695Z,13.97
2018-12-12T12:54:24.352Z,13.73
2018-12-12T12:56:55.927Z,13.87
2018-12-12T12:59:28.380Z,13.53
2018-12-12T13:02:01.021Z,13.73
2018-12-12T13:04:32.861Z,13.37
2018-12-12T13:07:07.638Z,12.70
2018-12-12T13:09:41.713Z,13.60
2018-12-12T13:12:13.623Z,14.10
2018-12-12T13:14:45.637Z,12.47
2018-12-12T13:17:17.858Z,11.80
2018-12-12T13:19:52.546Z,11.40
2018-12-12T13:22:24.740Z,12.43
2018-12-12T13:24:57.092Z,12.83
2018-12-12T13:27:29.663Z,12.33
2018-12-12T13:30:04.449Z,11.87
2018-12-12T13:32:36.723Z,12.30
2018-12-12T13:35:09.145Z,11.80
2018-12-12T13:42:41.725Z,11.07
2018-12-12T13:45:16.188Z,10.60
2018-12-12T13:47:50.277Z,11.50
2018-12-12T13:50:21.747Z,10.67
2018-12-12T13:52:54.392Z,10.77
2018-12-12T13:55:26.339Z,8.93
2018-12-12T13:57:58.495Z,8.87
2018-12-12T14:00:30.469Z,9.90
2018-12-12T14:03:03.573Z,7.77
2018-12-12T14:05:36.137Z,8.90
2018-12-12T14:08:08.376Z,8.13
2018-12-12T14:10:40.761Z,8.20
2018-12-12T14:13:27.958Z,6.80
2018-12-12T14:16:00.350Z,6.73
2018-12-12T14:18:34.888Z,6.53
2018-12-12T14:21:06.772Z,5.70
2018-12-12T14:23:39.204Z,5.33
2018-12-12T14:26:10.980Z,4.70
2018-12-12T14:28:43.154Z,5.13
2018-12-12T14:31:17.474Z,6.20
2018-12-12T14:33:54.654Z,5.40
2018-12-12T14:36:30.753Z,5.20
2018-12-12T14:39:06.009Z,5.20
2018-12-12T14:41:38.790Z,4.90
2018-12-12T14:44:10.927Z,4.40
2018-12-12T14:46:43.124Z,5.07
2018-12-12T14:49:17.698Z,5.10
2018-12-12T14:51:56.996Z,4.90
2018-12-12T14:54:33.603Z,4.93
2018-12-12T14:57:10.658Z,5.13
2018-12-12T14:59:53.913Z,5.57
2018-12-12T15:02:25.948Z,5.40
2018-12-12T15:05:06.259Z,5.37
2018-12-12T15:07:49.363Z,5.63
2018-12-12T15:10:22.457Z,5.27
2018-12-12T15:12:56.927Z,6.43
2018-12-12T15:15:34.349Z,6.13
2018-12-12T15:18:07.421Z,5.80
2018-12-12T15:20:40.118Z,7.17
2018-12-12T15:23:13.025Z,6.93
2018-12-12T15:25:45.432Z,5.63
2018-12-12T15:28:18.045Z,6.80
2018-12-12T15:30:50.430Z,5.43
2018-12-12T15:33:22.741Z,5.50
2018-12-12T15:35:54.887Z,5.70
2018-12-12T15:38:28.141Z,7.23
2018-12-12T15:41:02.304Z,6.10
2018-12-12T15:43:36.517Z,6.23
2018-12-12T15:46:10.815Z,6.57
2018-12-12T15:48:45.209Z,5.90
2018-12-12T15:51:19.548Z,6.73
2018-12-12T15:53:51.867Z,6.20
2018-12-12T15:56:25.789Z,6.27
2018-12-12T15:59:01.049Z,6.17
2018-12-12T16:01:32.987Z,9.00
2018-12-12T16:04:05.053Z,10.40
2018-12-12T16:06:37.515Z,8.43
2018-12-12T16:09:09.671Z,7.67
2018-12-12T16:11:41.733Z,8.10
2018-12-12T16:14:17.802Z,6.83
2018-12-12T16:16:53.501Z,7.10
2018-12-12T16:19:32.501Z,7.37
2018-12-12T16:22:04.903Z,6.97
2018-12-12T16:24:37.160Z,8.37
2018-12-12T16:27:09.595Z,7.30
2018-12-12T16:29:41.814Z,7.83
2018-12-12T16:32:15.097Z,7.50
2018-12-12T16:34:55.809Z,6.90
2018-12-12T16:37:28.330Z,7.90
2018-12-12T16:40:00.928Z,7.17
2018-12-12T16:42:33.076Z,7.73
2018-12-12T16:45:08.104Z,8.40
2018-12-12T16:47:40.598Z,8.17
2018-12-12T16:50:19.570Z,7.17
2018-12-12T16:53:01.990Z,7.37
2018-12-12T16:55:34.294Z,7.70
2018-12-12T16:58:06.550Z,8.53
2018-12-12T17:00:41.034Z,9.03
2018-12-12T17:03:16.916Z,9.77
2018-12-12T17:05:52.038Z,7.57
2018-12-12T17:08:27.221Z,7.10
2018-12-12T17:10:59.439Z,6.97
2018-12-12T17:13:31.137Z,6.60
2018-12-12T17:16:03.523Z,6.87
2018-12-12T17:18:38.561Z,6.43
2018-12-12T17:21:11.828Z,7.00
2018-12-12T17:23:44.757Z,6.40
2018-12-12T17:26:16.897Z,6.50
2018-12-12T17:28:49.265Z,6.70
2018-12-12T17:31:21.249Z,6.67
2018-12-12T17:33:54.124Z,6.43
2018-12-12T17:36:25.774Z,6.07
2018-12-12T17:38:57.378Z,6.07
2018-12-12T17:41:29.869Z,5.37
2018-12-12T17:44:02.673Z,6.00
2018-12-12T17:46:34.655Z,5.83
2018-12-12T17:49:06.901Z,5.40
2018-12-12T17:51:39.034Z,5.93
2018-12-12T17:54:11.307Z,5.87
2018-12-12T17:56:43.303Z,6.10
2018-12-12T17:59:15.413Z,6.00
2018-12-12T18:04:17.503Z,6.47
2018-12-12T18:11:50.853Z,6.13
2018-12-12T18:26:49.111Z,7.07
2018-12-12T18:34:23.719Z,6.73
2018-12-12T18:36:55.938Z,8.03
2018-12-12T18:39:30.612Z,7.70
2018-12-12T18:42:03.237Z,7.30
2018-12-12T18:44:38.177Z,8.33
2018-12-12T18:47:09.877Z,7.17
2018-12-12T18:49:42.882Z,8.20
2018-12-12T18:52:17.834Z,8.00
2018-12-12T18:54:50.038Z,8.27
2018-12-12T18:57:22.085Z,7.00
2018-12-12T18:59:54.691Z,6.80
2018-12-12T19:02:26.774Z,7.73
2018-12-12T19:05:00.012Z,7.23
2018-12-12T19:07:33.076Z,8.20
2018-12-12T19:10:05.732Z,7.53
2018-12-12T19:12:40.419Z,7.57
2018-12-12T19:15:12.684Z,7.00
2018-12-12T19:17:49.731Z,8.17
2018-12-12T19:20:22.093Z,7.93
2018-12-12T19:22:57.106Z,6.90
2018-12-12T19:25:29.997Z,6.77
2018-12-12T19:28:03.714Z,7.33
2018-12-12T19:30:38.820Z,7.03
2018-12-12T19:33:16.430Z,8.17
2018-12-12T19:35:51.133Z,7.13
2018-12-12T19:38:24.539Z,7.73
2018-12-12T19:41:00.277Z,7.33
2018-12-12T19:43:33.366Z,7.43
2018-12-12T19:46:10.228Z,8.00
2018-12-12T19:48:45.407Z,8.73
2018-12-12T19:51:18.258Z,7.73
2018-12-12T19:53:50.293Z,7.77
2018-12-12T19:56:22.721Z,7.50
2018-12-12T19:58:55.392Z,7.53
2018-12-12T20:01:29.238Z,8.60
2018-12-12T20:04:01.205Z,7.67
2018-12-12T20:06:33.442Z,6.90
2018-12-12T20:09:07.695Z,7.60
2018-12-12T20:11:39.823Z,7.63
2018-12-12T20:14:13.848Z,7.73
2018-12-12T20:16:48.363Z,8.10
2018-12-12T20:19:20.453Z,7.70
2018-12-12T20:21:55.267Z,6.93
2018-12-12T20:24:30.638Z,7.67
2018-12-12T20:27:08.349Z,8.27
2018-12-12T20:29:40.973Z,8.10
2018-12-12T20:32:15.428Z,7.67
2018-12-12T20:34:51.788Z,7.87
2018-12-12T20:37:28.032Z,8.17
2018-12-12T20:40:04.456Z,8.10
2018-12-12T20:42:40.903Z,8.03
2018-12-12T20:45:16.041Z,7.53
2018-12-12T20:47:48.197Z,7.83
2018-12-12T20:50:22.747Z,8.07
2018-12-12T20:52:56.553Z,7.53
2018-12-12T20:55:31.117Z,7.80
2018-12-12T20:58:03.732Z,7.63
2018-12-12T21:00:36.322Z,8.27
2018-12-12T21:03:17.114Z,7.83
2018-12-12T21:05:54.495Z,7.73
2018-12-12T21:08:26.597Z,7.13
2018-12-12T21:10:59.511Z,7.67
2018-12-12T21:13:35.969Z,7.33
2018-12-12T21:16:09.456Z,7.93
2018-12-12T21:18:43.143Z,8.17
2018-12-12T21:21:16.404Z,7.43
2018-12-12T21:23:57.373Z,7.30
2018-12-12T21:26:31.560Z,8.27
2018-12-12T21:29:09.189Z,7.80
2018-12-12T21:31:47.602Z,7.63
2018-12-12T21:34:22.955Z,8.07
2018-12-12T21:36:56.226Z,7.33
2018-12-12T21:39:31.719Z,7.90
2018-12-12T21:42:15.257Z,7.43
2018-12-12T21:44:57.992Z,8.20
2018-12-12T21:47:37.816Z,7.30
2018-12-12T21:50:12.962Z,8.00
2018-12-12T21:52:47.602Z,7.33
2018-12-12T21:55:22.220Z,8.00
2018-12-12T21:58:05.753Z,7.80
2018-12-12T22:00:38.219Z,8.87
2018-12-12T22:03:13.039Z,8.90
2018-12-12T22:05:51.055Z,8.53
2018-12-12T22:08:26.427Z,8.40
2018-12-12T22:10:58.131Z,9.40
2018-12-12T22:13:32.518Z,9.60
2018-12-12T22:16:04.747Z,11.37
2018-12-12T22:18:37.541Z,9.50
2018-12-12T22:21:14.108Z,10.37
2018-12-12T22:23:48.545Z,9.07
2018-12-12T22:26:21.433Z,9.27
2018-12-12T22:28:53.635Z,8.60
2018-12-12T22:31:26.211Z,9.87
2018-12-12T22:33:58.263Z,9.63
2018-12-12T22:36:30.697Z,10.33
2018-12-12T22:39:07.801Z,11.07
2018-12-12T22:41:40.081Z,9.57
2018-12-12T22:44:14.518Z,9.87
2018-12-12T22:46:46.064Z,10.83
2018-12-12T22:49:17.635Z,11.03
2018-12-12T22:51:52.340Z,10.57
2018-12-12T22:54:24.316Z,10.50
2018-12-12T22:56:56.823Z,9.97
2018-12-12T22:59:31.686Z,10.23
2018-12-12T23:02:03.644Z,11.67
2018-12-12T23:04:37.702Z,10.80
2018-12-12T23:07:12.044Z,11.37
2018-12-12T23:09:46.247Z,10.43
2018-12-12T23:12:17.849Z,8.30
2018-12-12T23:14:50.483Z,8.33
2018-12-12T23:17:22.261Z,8.50
2018-12-12T23:19:54.342Z,8.50
2018-12-12T23:22:28.303Z,7.43
2018-12-12T23:25:03.243Z,7.83
2018-12-12T23:27:35.526Z,8.57
2018-12-12T23:30:10.419Z,8.70
2018-12-12T23:32:42.083Z,8.70
2018-12-12T23:35:16.724Z,8.73
2018-12-12T23:37:48.399Z,8.83
2018-12-12T23:40:23.272Z,9.27
2018-12-12T23:42:57.750Z,9.47
2018-12-12T23:45:30.423Z,8.90
2018-12-12T23:48:04.982Z,9.50
2018-12-12T23:50:37.098Z,7.43
2018-12-12T23:53:09.065Z,9.17
2018-12-12T23:55:41.489Z,8.57
2018-12-12T23:58:13.777Z,9.03
